Chirnside, United Kingdom
Current Conditions -  °F | °C
As of 12:50 AM on Friday 19 Dec 2014 (Local Time) from EGQM Reporting Station
Clear Clear  
Wind Chill: 35°   Ceiling: Unl
Heat Index: 43°   Visibility: 6mi
Dew Point: 36°   Wind: 15mph
Humidity: 76%   Direction: 240°WSW
Pressure: 29.5"   Gusts: NA
Location:  55.8°N, 2.21°W
Report Text: EGQM 190050Z AUTO 24013KT 9999 NCD 06/02 Q0999
Loading
Personal Weather Stations






























Interactive Weather Map New forecast layout! Learn more

10-Day Weather Forecast

Advertisements
Track Severe Weather on mobile